sensor_id;sensor_type;location;lat;lon;timestamp;pressure;altitude;pressure_sealevel;temperature;humidity
18678;BME280;9469;51.114;13.914;2022-07-17T00:02:30;99696.69;;;12.45;88.26
18678;BME280;9469;51.114;13.914;2022-07-17T00:07:35;99704.19;;;12.43;88.88
18678;BME280;9469;51.114;13.914;2022-07-17T00:12:43;99706.63;;;12.20;89.90
18678;BME280;9469;51.114;13.914;2022-07-17T00:17:48;99710.34;;;12.19;90.26
18678;BME280;9469;51.114;13.914;2022-07-17T00:22:53;99705.81;;;12.20;90.25
18678;BME280;9469;51.114;13.914;2022-07-17T00:28:02;99706.16;;;12.13;90.82
18678;BME280;9469;51.114;13.914;2022-07-17T00:33:06;99704.25;;;11.95;90.95
18678;BME280;9469;51.114;13.914;2022-07-17T00:38:12;99712.69;;;11.79;91.48
18678;BME280;9469;51.114;13.914;2022-07-17T00:43:22;99711.56;;;11.56;91.51
18678;BME280;9469;51.114;13.914;2022-07-17T00:48:29;99709.25;;;11.49;91.90
18678;BME280;9469;51.114;13.914;2022-07-17T00:53:36;99709.94;;;11.60;91.79
18678;BME280;9469;51.114;13.914;2022-07-17T00:58:44;99726.22;;;11.59;91.38
18678;BME280;9469;51.114;13.914;2022-07-17T01:03:49;99727.50;;;11.61;91.39
18678;BME280;9469;51.114;13.914;2022-07-17T01:08:54;99726.19;;;11.35;92.76
18678;BME280;9469;51.114;13.914;2022-07-17T01:14:02;99733.13;;;11.31;92.53
18678;BME280;9469;51.114;13.914;2022-07-17T01:19:07;99738.19;;;11.32;92.94
18678;BME280;9469;51.114;13.914;2022-07-17T01:24:16;99743.78;;;11.31;92.56
18678;BME280;9469;51.114;13.914;2022-07-17T01:29:22;99736.69;;;11.21;92.96
18678;BME280;9469;51.114;13.914;2022-07-17T01:34:27;99734.53;;;11.23;93.05
18678;BME280;9469;51.114;13.914;2022-07-17T01:39:35;99733.88;;;11.03;94.61
18678;BME280;9469;51.114;13.914;2022-07-17T01:44:54;99729.56;;;11.12;94.64
18678;BME280;9469;51.114;13.914;2022-07-17T01:49:59;99736.66;;;10.88;96.05
18678;BME280;9469;51.114;13.914;2022-07-17T01:55:10;99731.63;;;10.81;95.46
18678;BME280;9469;51.114;13.914;2022-07-17T02:00:17;99733.53;;;10.75;95.67
18678;BME280;9469;51.114;13.914;2022-07-17T02:05:24;99736.34;;;10.50;96.48
18678;BME280;9469;51.114;13.914;2022-07-17T02:10:33;99721.53;;;10.34;97.04
18678;BME280;9469;51.114;13.914;2022-07-17T02:15:38;99726.88;;;10.29;97.28
18678;BME280;9469;51.114;13.914;2022-07-17T02:20:43;99728.78;;;10.24;97.43
18678;BME280;9469;51.114;13.914;2022-07-17T02:25:54;99727.16;;;10.28;97.60
18678;BME280;9469;51.114;13.914;2022-07-17T02:30:59;99729.50;;;10.34;96.71
18678;BME280;9469;51.114;13.914;2022-07-17T02:36:05;99735.94;;;10.23;97.10
18678;BME280;9469;51.114;13.914;2022-07-17T02:41:12;99738.38;;;10.15;97.40
18678;BME280;9469;51.114;13.914;2022-07-17T02:46:18;99742.94;;;9.94;98.23
18678;BME280;9469;51.114;13.914;2022-07-17T02:51:23;99745.34;;;9.90;98.46
18678;BME280;9469;51.114;13.914;2022-07-17T02:56:31;99742.34;;;10.07;98.17
18678;BME280;9469;51.114;13.914;2022-07-17T03:01:36;99743.19;;;9.97;98.24
18678;BME280;9469;51.114;13.914;2022-07-17T03:06:41;99737.69;;;9.74;98.62
18678;BME280;9469;51.114;13.914;2022-07-17T03:11:55;99746.97;;;9.76;98.46
18678;BME280;9469;51.114;13.914;2022-07-17T03:17:01;99744.78;;;9.88;98.70
18678;BME280;9469;51.114;13.914;2022-07-17T03:22:06;99735.47;;;9.96;97.60
18678;BME280;9469;51.114;13.914;2022-07-17T03:27:16;99740.84;;;9.71;98.24
18678;BME280;9469;51.114;13.914;2022-07-17T03:32:21;99741.94;;;9.60;99.05
18678;BME280;9469;51.114;13.914;2022-07-17T03:37:28;99742.22;;;9.63;98.46
18678;BME280;9469;51.114;13.914;2022-07-17T03:42:37;99751.97;;;9.93;96.56
18678;BME280;9469;51.114;13.914;2022-07-17T03:47:42;99750.97;;;9.79;97.06
18678;BME280;9469;51.114;13.914;2022-07-17T03:52:47;99759.69;;;9.94;96.81
18678;BME280;9469;51.114;13.914;2022-07-17T03:57:54;99752.19;;;10.06;96.00
18678;BME280;9469;51.114;13.914;2022-07-17T04:02:59;99775.34;;;10.06;96.50
18678;BME280;9469;51.114;13.914;2022-07-17T04:08:05;99779.00;;;10.25;96.06
18678;BME280;9469;51.114;13.914;2022-07-17T04:13:12;99773.69;;;10.30;95.00
18678;BME280;9469;51.114;13.914;2022-07-17T04:18:18;99783.22;;;10.36;95.84
18678;BME280;9469;51.114;13.914;2022-07-17T04:23:24;99784.16;;;10.65;94.67
18678;BME280;9469;51.114;13.914;2022-07-17T04:28:31;99787.53;;;10.81;94.20
18678;BME280;9469;51.114;13.914;2022-07-17T04:33:36;99784.66;;;11.16;92.96
18678;BME280;9469;51.114;13.914;2022-07-17T04:38:41;99785.81;;;11.39;92.17
18678;BME280;9469;51.114;13.914;2022-07-17T04:43:49;99786.66;;;11.63;91.41
18678;BME280;9469;51.114;13.914;2022-07-17T04:48:55;99790.94;;;11.93;90.85
18678;BME280;9469;51.114;13.914;2022-07-17T04:54:00;99795.66;;;12.67;89.60
18678;BME280;9469;51.114;13.914;2022-07-17T04:59:08;99795.00;;;13.17;87.32
18678;BME280;9469;51.114;13.914;2022-07-17T05:04:13;99793.03;;;13.87;84.43
18678;BME280;9469;51.114;13.914;2022-07-17T05:09:18;99787.75;;;15.13;80.78
18678;BME280;9469;51.114;13.914;2022-07-17T05:14:25;99798.44;;;16.02;76.98
18678;BME280;9469;51.114;13.914;2022-07-17T05:19:30;99795.25;;;16.30;74.02
18678;BME280;9469;51.114;13.914;2022-07-17T05:24:37;99798.34;;;16.15;72.79
18678;BME280;9469;51.114;13.914;2022-07-17T05:29:45;99795.09;;;17.26;69.88
18678;BME280;9469;51.114;13.914;2022-07-17T05:34:50;99805.34;;;16.90;69.18
18678;BME280;9469;51.114;13.914;2022-07-17T05:39:55;99809.03;;;17.37;67.54
18678;BME280;9469;51.114;13.914;2022-07-17T05:45:03;99812.44;;;18.26;65.75
18678;BME280;9469;51.114;13.914;2022-07-17T05:50:08;99821.03;;;19.07;63.59
18678;BME280;9469;51.114;13.914;2022-07-17T05:55:15;99816.56;;;20.10;61.58
18678;BME280;9469;51.114;13.914;2022-07-17T06:00:23;99824.00;;;20.85;59.66
18678;BME280;9469;51.114;13.914;2022-07-17T06:05:30;99817.81;;;21.64;58.45
18678;BME280;9469;51.114;13.914;2022-07-17T06:10:35;99824.09;;;21.13;57.74
18678;BME280;9469;51.114;13.914;2022-07-17T06:15:43;99820.34;;;22.32;55.17
18678;BME280;9469;51.114;13.914;2022-07-17T06:20:48;99819.53;;;24.15;52.57
18678;BME280;9469;51.114;13.914;2022-07-17T06:25:53;99820.78;;;24.70;51.65
18678;BME280;9469;51.114;13.914;2022-07-17T06:31:03;99820.72;;;23.15;54.75
18678;BME280;9469;51.114;13.914;2022-07-17T06:36:08;99817.16;;;23.49;54.04
18678;BME280;9469;51.114;13.914;2022-07-17T06:41:13;99820.84;;;24.74;51.61
18678;BME280;9469;51.114;13.914;2022-07-17T06:46:21;99820.06;;;24.24;52.49
18678;BME280;9469;51.114;13.914;2022-07-17T06:51:26;99811.38;;;25.53;50.23
18678;BME280;9469;51.114;13.914;2022-07-17T06:56:31;99814.09;;;25.20;50.37
18678;BME280;9469;51.114;13.914;2022-07-17T07:01:41;99831.13;;;23.13;52.55
18678;BME280;9469;51.114;13.914;2022-07-17T07:06:47;99825.75;;;25.87;49.14
18678;BME280;9469;51.114;13.914;2022-07-17T07:11:51;99824.50;;;23.91;52.18
18678;BME280;9469;51.114;13.914;2022-07-17T07:16:59;99831.66;;;22.53;54.47
18678;BME280;9469;51.114;13.914;2022-07-17T07:22:04;99824.00;;;22.70;54.52
18678;BME280;9469;51.114;13.914;2022-07-17T07:27:10;99823.69;;;22.75;54.83
18678;BME280;9469;51.114;13.914;2022-07-17T07:32:18;99837.41;;;22.63;54.46
18678;BME280;9469;51.114;13.914;2022-07-17T07:37:23;99837.56;;;21.80;57.55
18678;BME280;9469;51.114;13.914;2022-07-17T07:42:28;99843.00;;;21.25;58.06
18678;BME280;9469;51.114;13.914;2022-07-17T07:47:43;99841.22;;;21.84;56.22
18678;BME280;9469;51.114;13.914;2022-07-17T07:52:48;99840.44;;;20.92;58.80
18678;BME280;9469;51.114;13.914;2022-07-17T07:58:01;99850.00;;;21.81;58.23
18678;BME280;9469;51.114;13.914;2022-07-17T08:03:09;99848.50;;;20.52;59.59
18678;BME280;9469;51.114;13.914;2022-07-17T08:08:14;99851.78;;;20.01;60.90
18678;BME280;9469;51.114;13.914;2022-07-17T08:13:19;99845.09;;;20.43;60.26
18678;BME280;9469;51.114;13.914;2022-07-17T08:18:27;99843.81;;;21.13;58.51
18678;BME280;9469;51.114;13.914;2022-07-17T08:23:32;99851.69;;;20.10;60.33
18678;BME280;9469;51.114;13.914;2022-07-17T08:28:37;99844.66;;;19.84;60.01
18678;BME280;9469;51.114;13.914;2022-07-17T08:33:44;99837.03;;;21.75;57.82
18678;BME280;9469;51.114;13.914;2022-07-17T08:38:49;99832.63;;;21.55;57.14
18678;BME280;9469;51.114;13.914;2022-07-17T08:43:55;99834.41;;;21.90;56.73
18678;BME280;9469;51.114;13.914;2022-07-17T08:49:04;99842.66;;;21.54;57.47
18678;BME280;9469;51.114;13.914;2022-07-17T08:54:10;99850.75;;;21.66;57.06
18678;BME280;9469;51.114;13.914;2022-07-17T08:59:15;99833.31;;;21.52;58.15
18678;BME280;9469;51.114;13.914;2022-07-17T09:04:27;99844.88;;;21.36;57.39
18678;BME280;9469;51.114;13.914;2022-07-17T09:09:49;99837.03;;;21.19;57.85
18678;BME280;9469;51.114;13.914;2022-07-17T09:14:56;99816.81;;;22.47;55.68
18678;BME280;9469;51.114;13.914;2022-07-17T09:20:15;99824.78;;;22.08;55.77
18678;BME280;9469;51.114;13.914;2022-07-17T09:25:31;99829.59;;;22.62;54.59
18678;BME280;9469;51.114;13.914;2022-07-17T09:30:39;99833.09;;;22.16;55.13
18678;BME280;9469;51.114;13.914;2022-07-17T09:35:50;99836.22;;;21.86;55.54
18678;BME280;9469;51.114;13.914;2022-07-17T09:41:03;99827.69;;;22.31;54.50
18678;BME280;9469;51.114;13.914;2022-07-17T09:46:18;99822.75;;;23.03;53.79
18678;BME280;9469;51.114;13.914;2022-07-17T09:51:29;99827.03;;;21.48;55.97
18678;BME280;9469;51.114;13.914;2022-07-17T09:56:35;99817.16;;;22.96;53.62
18678;BME280;9469;51.114;13.914;2022-07-17T10:01:43;99830.09;;;21.89;56.33
18678;BME280;9469;51.114;13.914;2022-07-17T10:06:53;99835.88;;;21.88;55.09
18678;BME280;9469;51.114;13.914;2022-07-17T10:11:58;99837.72;;;22.31;53.91
18678;BME280;9469;51.114;13.914;2022-07-17T10:17:06;99844.56;;;22.25;53.78
18678;BME280;9469;51.114;13.914;2022-07-17T10:22:14;99828.66;;;22.89;53.15
18678;BME280;9469;51.114;13.914;2022-07-17T10:27:21;99821.56;;;22.65;53.76
18678;BME280;9469;51.114;13.914;2022-07-17T10:32:27;99802.47;;;22.62;53.39
18678;BME280;9469;51.114;13.914;2022-07-17T10:37:40;99814.75;;;22.91;52.50
18678;BME280;9469;51.114;13.914;2022-07-17T10:42:51;99813.81;;;22.83;52.68
18678;BME280;9469;51.114;13.914;2022-07-17T10:47:58;99818.84;;;22.65;52.49
18678;BME280;9469;51.114;13.914;2022-07-17T10:53:13;99820.63;;;23.12;52.07
18678;BME280;9469;51.114;13.914;2022-07-17T10:58:28;99823.19;;;23.05;52.75
18678;BME280;9469;51.114;13.914;2022-07-17T11:03:37;99803.69;;;22.49;52.45
18678;BME280;9469;51.114;13.914;2022-07-17T11:08:56;99823.84;;;22.63;52.29
18678;BME280;9469;51.114;13.914;2022-07-17T11:14:10;99820.44;;;23.20;51.70
18678;BME280;9469;51.114;13.914;2022-07-17T11:19:25;99813.63;;;23.30;50.86
18678;BME280;9469;51.114;13.914;2022-07-17T11:24:38;99821.19;;;22.67;51.31
18678;BME280;9469;51.114;13.914;2022-07-17T11:29:47;99806.44;;;23.37;49.78
18678;BME280;9469;51.114;13.914;2022-07-17T11:34:52;99811.72;;;23.49;49.59
18678;BME280;9469;51.114;13.914;2022-07-17T11:40:19;99806.03;;;24.00;49.67
18678;BME280;9469;51.114;13.914;2022-07-17T11:45:24;99794.84;;;23.60;50.85
18678;BME280;9469;51.114;13.914;2022-07-17T11:50:30;99795.69;;;24.05;50.20
18678;BME280;9469;51.114;13.914;2022-07-17T11:55:39;99785.69;;;24.62;49.84
18678;BME280;9469;51.114;13.914;2022-07-17T12:00:44;99783.38;;;24.64;49.10
18678;BME280;9469;51.114;13.914;2022-07-17T12:05:49;99786.03;;;23.89;49.83
18678;BME280;9469;51.114;13.914;2022-07-17T12:11:05;99777.19;;;23.50;49.44
18678;BME280;9469;51.114;13.914;2022-07-17T12:16:25;99781.94;;;23.76;49.30
18678;BME280;9469;51.114;13.914;2022-07-17T12:21:33;99784.66;;;23.98;49.06
18678;BME280;9469;51.114;13.914;2022-07-17T12:26:42;99780.44;;;24.23;47.73
18678;BME280;9469;51.114;13.914;2022-07-17T12:31:47;99773.69;;;24.14;48.13
18678;BME280;9469;51.114;13.914;2022-07-17T12:36:53;99763.81;;;24.55;47.52
18678;BME280;9469;51.114;13.914;2022-07-17T12:42:02;99758.50;;;25.25;46.12
18678;BME280;9469;51.114;13.914;2022-07-17T12:47:07;99759.75;;;24.98;46.37
18678;BME280;9469;51.114;13.914;2022-07-17T12:52:12;99752.59;;;24.86;45.79
18678;BME280;9469;51.114;13.914;2022-07-17T12:57:20;99765.63;;;24.73;47.21
18678;BME280;9469;51.114;13.914;2022-07-17T13:02:25;99752.31;;;24.94;46.86
18678;BME280;9469;51.114;13.914;2022-07-17T13:07:50;99735.34;;;25.41;45.19
18678;BME280;9469;51.114;13.914;2022-07-17T13:12:58;99749.69;;;25.35;44.50
18678;BME280;9469;51.114;13.914;2022-07-17T13:18:03;99730.06;;;25.19;44.11
18678;BME280;9469;51.114;13.914;2022-07-17T13:23:08;99725.59;;;25.37;43.98
18678;BME280;9469;51.114;13.914;2022-07-17T13:28:16;99729.38;;;24.92;44.26
18678;BME280;9469;51.114;13.914;2022-07-17T13:33:21;99724.63;;;25.22;43.63
18678;BME280;9469;51.114;13.914;2022-07-17T13:38:26;99728.53;;;25.58;44.72
18678;BME280;9469;51.114;13.914;2022-07-17T13:43:34;99721.88;;;25.52;44.42
18678;BME280;9469;51.114;13.914;2022-07-17T13:48:39;99718.16;;;25.34;44.11
18678;BME280;9469;51.114;13.914;2022-07-17T13:53:44;99719.41;;;25.07;44.03
18678;BME280;9469;51.114;13.914;2022-07-17T13:58:52;99713.75;;;25.22;43.93
18678;BME280;9469;51.114;13.914;2022-07-17T14:04:00;99715.41;;;25.30;44.45
18678;BME280;9469;51.114;13.914;2022-07-17T14:09:05;99703.13;;;25.43;42.82
18678;BME280;9469;51.114;13.914;2022-07-17T14:14:13;99709.50;;;24.32;44.36
18678;BME280;9469;51.114;13.914;2022-07-17T14:19:20;99695.81;;;25.18;43.69
18678;BME280;9469;51.114;13.914;2022-07-17T14:24:27;99690.28;;;25.11;44.35
18678;BME280;9469;51.114;13.914;2022-07-17T14:29:35;99698.19;;;25.23;45.48
18678;BME280;9469;51.114;13.914;2022-07-17T14:34:39;99691.44;;;24.76;45.22
18678;BME280;9469;51.114;13.914;2022-07-17T14:39:45;99684.84;;;25.44;43.84
18678;BME280;9469;51.114;13.914;2022-07-17T14:44:52;99672.59;;;25.31;44.35
18678;BME280;9469;51.114;13.914;2022-07-17T14:49:58;99667.78;;;25.14;44.30
18678;BME280;9469;51.114;13.914;2022-07-17T14:55:04;99662.66;;;25.45;43.75
18678;BME280;9469;51.114;13.914;2022-07-17T15:00:15;99663.34;;;25.39;43.73
18678;BME280;9469;51.114;13.914;2022-07-17T15:05:21;99650.44;;;25.32;43.72
18678;BME280;9469;51.114;13.914;2022-07-17T15:10:26;99660.38;;;25.51;42.62
18678;BME280;9469;51.114;13.914;2022-07-17T15:15:34;99666.81;;;25.36;42.55
18678;BME280;9469;51.114;13.914;2022-07-17T15:20:40;99670.84;;;25.49;42.93
18678;BME280;9469;51.114;13.914;2022-07-17T15:25:45;99653.25;;;25.39;42.63
18678;BME280;9469;51.114;13.914;2022-07-17T15:30:53;99654.31;;;25.28;43.02
18678;BME280;9469;51.114;13.914;2022-07-17T15:35:59;99654.63;;;25.63;43.83
18678;BME280;9469;51.114;13.914;2022-07-17T15:41:04;99655.50;;;25.34;43.02
18678;BME280;9469;51.114;13.914;2022-07-17T15:46:12;99653.28;;;24.73;43.34
18678;BME280;9469;51.114;13.914;2022-07-17T15:51:17;99641.81;;;25.23;43.42
18678;BME280;9469;51.114;13.914;2022-07-17T15:56:23;99643.06;;;25.33;43.64
18678;BME280;9469;51.114;13.914;2022-07-17T16:01:32;99632.91;;;25.30;42.84
18678;BME280;9469;51.114;13.914;2022-07-17T16:06:37;99633.66;;;24.90;43.26
18678;BME280;9469;51.114;13.914;2022-07-17T16:11:44;99635.25;;;25.28;43.53
18678;BME280;9469;51.114;13.914;2022-07-17T16:16:54;99627.41;;;25.26;43.02
18678;BME280;9469;51.114;13.914;2022-07-17T16:21:59;99629.97;;;25.45;43.17
18678;BME280;9469;51.114;13.914;2022-07-17T16:27:07;99620.72;;;25.57;42.54
18678;BME280;9469;51.114;13.914;2022-07-17T16:32:15;99613.25;;;25.07;43.31
18678;BME280;9469;51.114;13.914;2022-07-17T16:37:20;99622.19;;;25.44;42.16
18678;BME280;9469;51.114;13.914;2022-07-17T16:42:25;99628.28;;;25.81;41.58
18678;BME280;9469;51.114;13.914;2022-07-17T16:47:34;99620.69;;;24.76;40.89
18678;BME280;9469;51.114;13.914;2022-07-17T16:52:40;99628.25;;;25.30;42.65
18678;BME280;9469;51.114;13.914;2022-07-17T16:57:47;99623.16;;;24.85;41.53
18678;BME280;9469;51.114;13.914;2022-07-17T17:02:55;99609.72;;;25.43;41.87
18678;BME280;9469;51.114;13.914;2022-07-17T17:08:00;99617.28;;;25.67;41.93
18678;BME280;9469;51.114;13.914;2022-07-17T17:13:06;99608.97;;;25.06;42.59
18678;BME280;9469;51.114;13.914;2022-07-17T17:18:15;99613.66;;;25.49;42.99
18678;BME280;9469;51.114;13.914;2022-07-17T17:23:20;99609.16;;;24.86;43.20
18678;BME280;9469;51.114;13.914;2022-07-17T17:28:28;99610.13;;;25.08;43.69
18678;BME280;9469;51.114;13.914;2022-07-17T17:33:36;99614.09;;;24.77;44.60
18678;BME280;9469;51.114;13.914;2022-07-17T17:38:41;99611.53;;;24.58;44.69
18678;BME280;9469;51.114;13.914;2022-07-17T17:43:46;99600.84;;;25.13;44.96
18678;BME280;9469;51.114;13.914;2022-07-17T17:48:55;99606.28;;;25.13;44.91
18678;BME280;9469;51.114;13.914;2022-07-17T17:54:00;99602.25;;;24.63;45.60
18678;BME280;9469;51.114;13.914;2022-07-17T17:59:05;99598.66;;;24.22;46.36
18678;BME280;9469;51.114;13.914;2022-07-17T18:04:14;99607.66;;;24.26;46.22
18678;BME280;9469;51.114;13.914;2022-07-17T18:09:20;99617.38;;;24.01;46.94
18678;BME280;9469;51.114;13.914;2022-07-17T18:14:25;99608.91;;;23.80;47.38
18678;BME280;9469;51.114;13.914;2022-07-17T18:19:33;99602.34;;;23.81;47.02
18678;BME280;9469;51.114;13.914;2022-07-17T18:24:38;99609.31;;;23.82;47.18
18678;BME280;9469;51.114;13.914;2022-07-17T18:29:46;99612.28;;;23.73;47.14
18678;BME280;9469;51.114;13.914;2022-07-17T18:34:55;99616.00;;;23.62;47.96
18678;BME280;9469;51.114;13.914;2022-07-17T18:40:00;99616.84;;;23.43;48.43
18678;BME280;9469;51.114;13.914;2022-07-17T18:45:07;99622.38;;;23.05;49.23
18678;BME280;9469;51.114;13.914;2022-07-17T18:50:15;99622.78;;;22.65;50.09
18678;BME280;9469;51.114;13.914;2022-07-17T18:55:20;99630.28;;;22.71;50.13
18678;BME280;9469;51.114;13.914;2022-07-17T19:00:26;99635.03;;;22.40;50.91
18678;BME280;9469;51.114;13.914;2022-07-17T19:05:35;99631.31;;;22.29;51.25
18678;BME280;9469;51.114;13.914;2022-07-17T19:10:42;99639.06;;;22.11;52.78
18678;BME280;9469;51.114;13.914;2022-07-17T19:15:47;99642.41;;;21.73;53.59
18678;BME280;9469;51.114;13.914;2022-07-17T19:20:55;99656.31;;;21.56;53.22
18678;BME280;9469;51.114;13.914;2022-07-17T19:26:03;99662.72;;;21.05;54.42
18678;BME280;9469;51.114;13.914;2022-07-17T19:31:08;99659.09;;;21.01;56.16
18678;BME280;9469;51.114;13.914;2022-07-17T19:36:18;99673.84;;;20.76;57.37
18678;BME280;9469;51.114;13.914;2022-07-17T19:41:23;99678.34;;;20.71;57.53
18678;BME280;9469;51.114;13.914;2022-07-17T19:46:28;99673.53;;;20.37;59.32
18678;BME280;9469;51.114;13.914;2022-07-17T19:51:37;99683.75;;;20.20;58.89
18678;BME280;9469;51.114;13.914;2022-07-17T19:56:42;99684.34;;;19.89;60.54
18678;BME280;9469;51.114;13.914;2022-07-17T20:01:47;99678.91;;;19.77;61.59
18678;BME280;9469;51.114;13.914;2022-07-17T20:06:55;99693.06;;;19.50;62.29
18678;BME280;9469;51.114;13.914;2022-07-17T20:12:00;99694.50;;;19.47;62.73
18678;BME280;9469;51.114;13.914;2022-07-17T20:17:09;99695.03;;;19.28;63.66
18678;BME280;9469;51.114;13.914;2022-07-17T20:22:16;99696.13;;;19.15;64.09
18678;BME280;9469;51.114;13.914;2022-07-17T20:27:22;99698.72;;;18.71;64.77
18678;BME280;9469;51.114;13.914;2022-07-17T20:32:27;99695.28;;;18.61;63.95
18678;BME280;9469;51.114;13.914;2022-07-17T20:37:35;99695.81;;;18.55;64.99
18678;BME280;9469;51.114;13.914;2022-07-17T20:42:40;99697.22;;;18.32;66.01
18678;BME280;9469;51.114;13.914;2022-07-17T20:47:50;99696.97;;;18.25;66.73
18678;BME280;9469;51.114;13.914;2022-07-17T20:52:58;99691.50;;;18.13;67.31
18678;BME280;9469;51.114;13.914;2022-07-17T20:58:08;99689.38;;;17.98;67.06
18678;BME280;9469;51.114;13.914;2022-07-17T21:03:15;99691.72;;;17.99;67.23
18678;BME280;9469;51.114;13.914;2022-07-17T21:08:24;99695.09;;;17.87;68.21
18678;BME280;9469;51.114;13.914;2022-07-17T21:13:30;99709.63;;;17.57;69.40
18678;BME280;9469;51.114;13.914;2022-07-17T21:18:35;99707.59;;;17.46;69.84
18678;BME280;9469;51.114;13.914;2022-07-17T21:23:43;99712.22;;;17.11;71.17
18678;BME280;9469;51.114;13.914;2022-07-17T21:28:48;99707.47;;;17.08;71.10
18678;BME280;9469;51.114;13.914;2022-07-17T21:33:53;99714.91;;;17.11;70.17
18678;BME280;9469;51.114;13.914;2022-07-17T21:39:00;99717.63;;;16.85;70.93
18678;BME280;9469;51.114;13.914;2022-07-17T21:44:05;99718.72;;;16.93;72.84
18678;BME280;9469;51.114;13.914;2022-07-17T21:49:10;99722.66;;;16.78;73.43
18678;BME280;9469;51.114;13.914;2022-07-17T21:54:18;99724.03;;;16.41;74.45
18678;BME280;9469;51.114;13.914;2022-07-17T21:59:24;99726.31;;;16.65;73.48
18678;BME280;9469;51.114;13.914;2022-07-17T22:04:29;99714.72;;;16.30;75.11
18678;BME280;9469;51.114;13.914;2022-07-17T22:09:37;99723.38;;;16.36;76.27
18678;BME280;9469;51.114;13.914;2022-07-17T22:14:43;99723.03;;;16.12;77.54
18678;BME280;9469;51.114;13.914;2022-07-17T22:19:48;99728.78;;;15.88;78.31
18678;BME280;9469;51.114;13.914;2022-07-17T22:25:00;99726.59;;;15.59;79.07
18678;BME280;9469;51.114;13.914;2022-07-17T22:30:07;99717.50;;;15.69;79.51
18678;BME280;9469;51.114;13.914;2022-07-17T22:35:12;99731.00;;;15.33;79.83
18678;BME280;9469;51.114;13.914;2022-07-17T22:40:25;99726.66;;;14.79;84.87
18678;BME280;9469;51.114;13.914;2022-07-17T22:45:30;99724.88;;;15.11;83.47
18678;BME280;9469;51.114;13.914;2022-07-17T22:50:35;99728.94;;;15.30;82.51
18678;BME280;9469;51.114;13.914;2022-07-17T22:55:43;99729.47;;;15.19;83.03
18678;BME280;9469;51.114;13.914;2022-07-17T23:00:49;99728.41;;;15.20;83.13
18678;BME280;9469;51.114;13.914;2022-07-17T23:05:59;99722.41;;;15.00;82.46
18678;BME280;9469;51.114;13.914;2022-07-17T23:11:09;99730.88;;;14.94;82.88
18678;BME280;9469;51.114;13.914;2022-07-17T23:16:15;99731.56;;;14.64;83.54
18678;BME280;9469;51.114;13.914;2022-07-17T23:21:20;99725.38;;;14.77;82.73
18678;BME280;9469;51.114;13.914;2022-07-17T23:26:28;99724.34;;;14.51;83.92
18678;BME280;9469;51.114;13.914;2022-07-17T23:31:33;99718.94;;;14.42;85.03
18678;BME280;9469;51.114;13.914;2022-07-17T23:36:39;99715.53;;;13.82;87.57
18678;BME280;9469;51.114;13.914;2022-07-17T23:41:47;99708.00;;;14.25;85.63
18678;BME280;9469;51.114;13.914;2022-07-17T23:46:52;99705.81;;;14.41;84.13
18678;BME280;9469;51.114;13.914;2022-07-17T23:51:58;99711.03;;;14.59;82.27
18678;BME280;9469;51.114;13.914;2022-07-17T23:57:06;99703.34;;;14.44;82.87
